Time;durP1;ratioP1;P1;durP2;ratioP2;P2;SDS_P1;SDS_P2;PMS_P1;PMS_P2;Temp;Humidity;BMP_temperature;BMP_pressure;BME280_temperature;BME280_humidity;BME280_pressure;Samples;Min_cycle;Max_cycle;Signal;HPM_P1;HPM_P2
2023/05/21 00:01:42;;;;;;;0.40;0.40;;;;;;;;;;5068087;28;20183;-81
2023/05/21 00:04:08;;;;;;;0.50;0.50;;;;;;;;;;5063525;28;20226;-81
2023/05/21 00:06:34;;;;;;;0.60;0.60;;;;;;;;;;5059839;28;20175;-82
2023/05/21 00:09:02;;;;;;;0.50;0.50;;;;;;;;;;5061550;28;20182;-82
2023/05/21 00:11:28;;;;;;;0.50;0.50;;;;;;;;;;5060921;28;20183;-81
2023/05/21 00:13:54;;;;;;;0.40;0.40;;;;;;;;;;5059872;28;20214;-82
2023/05/21 00:16:20;;;;;;;0.50;0.50;;;;;;;;;;5061205;28;20175;-82
2023/05/21 00:18:48;;;;;;;0.50;0.50;;;;;;;;;;5076692;28;20519;-80
2023/05/21 00:21:16;;;;;;;0.40;0.40;;;;;;;;;;5077510;28;20186;-81
2023/05/21 00:23:42;;;;;;;0.40;0.40;;;;;;;;;;5077481;28;20197;-80
2023/05/21 00:26:08;;;;;;;0.40;0.40;;;;;;;;;;5066950;28;20469;-80
2023/05/21 00:28:34;;;;;;;0.50;0.50;;;;;;;;;;5061673;28;20696;-81
2023/05/21 00:31:01;;;;;;;0.50;0.50;;;;;;;;;;5058463;28;20221;-81
2023/05/21 00:33:27;;;;;;;0.40;0.40;;;;;;;;;;5058047;28;20198;-80
2023/05/21 00:35:53;;;;;;;0.50;0.50;;;;;;;;;;5058124;28;20179;-82
2023/05/21 00:38:20;;;;;;;0.50;0.50;;;;;;;;;;5058035;28;20225;-81
2023/05/21 00:40:47;;;;;;;0.40;0.40;;;;;;;;;;5057877;28;20261;-81
2023/05/21 00:43:13;;;;;;;0.40;0.40;;;;;;;;;;5057480;28;20191;-81
2023/05/21 00:45:43;;;;;;;0.50;0.50;;;;;;;;;;5057699;28;20171;-80
2023/05/21 00:48:09;;;;;;;0.50;0.50;;;;;;;;;;5056190;28;20718;-80
2023/05/21 00:50:38;;;;;;;0.40;0.40;;;;;;;;;;5057627;28;20178;-81
2023/05/21 00:53:08;;;;;;;0.33;0.33;;;;;;;;;;5057384;28;20195;-81
2023/05/21 00:55:34;;;;;;;0.50;0.50;;;;;;;;;;5057956;28;20172;-82
2023/05/21 00:58:00;;;;;;;0.40;0.40;;;;;;;;;;5057522;28;20171;-80
2023/05/21 01:00:27;;;;;;;0.47;0.47;;;;;;;;;;5057308;28;20256;-80
2023/05/21 01:02:53;;;;;;;0.40;0.40;;;;;;;;;;5056664;28;20199;-81
2023/05/21 01:05:20;;;;;;;0.50;0.50;;;;;;;;;;5058198;28;20243;-80
2023/05/21 01:07:47;;;;;;;0.40;0.40;;;;;;;;;;5057819;28;20179;-81
2023/05/21 01:10:13;;;;;;;0.40;0.40;;;;;;;;;;5055408;28;20182;-80
2023/05/21 01:12:40;;;;;;;0.40;0.40;;;;;;;;;;5056825;28;20693;-82
2023/05/21 01:15:07;;;;;;;0.37;0.37;;;;;;;;;;5057030;28;20557;-81
2023/05/21 01:17:33;;;;;;;0.50;0.50;;;;;;;;;;5056186;28;20184;-81
2023/05/21 01:19:59;;;;;;;0.40;0.40;;;;;;;;;;5057511;28;20213;-81
2023/05/21 01:22:27;;;;;;;0.40;0.40;;;;;;;;;;5056626;28;20202;-81
2023/05/21 01:24:54;;;;;;;0.50;0.50;;;;;;;;;;5057512;28;20278;-81
2023/05/21 01:27:20;;;;;;;0.30;0.30;;;;;;;;;;5065633;28;20179;-80
2023/05/21 01:29:46;;;;;;;0.40;0.40;;;;;;;;;;5059680;28;20182;-82
2023/05/21 01:32:32;;;;;;;0.50;0.50;;;;;;;;;;5058627;28;20179;-81
2023/05/21 01:35:04;;;;;;;0.40;0.40;;;;;;;;;;5059586;28;20213;-80
2023/05/21 01:37:34;;;;;;;0.53;0.53;;;;;;;;;;5059315;28;20179;-81
2023/05/21 01:40:05;;;;;;;0.60;0.60;;;;;;;;;;5058893;28;20215;-81
2023/05/21 01:42:31;;;;;;;0.43;0.43;;;;;;;;;;5057968;28;20560;-81
2023/05/21 01:44:59;;;;;;;0.40;0.40;;;;;;;;;;5058211;28;20232;-81
2023/05/21 01:47:26;;;;;;;0.40;0.40;;;;;;;;;;5057956;28;20176;-81
2023/05/21 01:49:52;;;;;;;0.50;0.50;;;;;;;;;;5058390;28;20187;-82
2023/05/21 01:52:18;;;;;;;0.40;0.40;;;;;;;;;;5057404;28;20653;-80
2023/05/21 01:54:44;;;;;;;0.40;0.40;;;;;;;;;;5058103;28;20190;-82
2023/05/21 01:57:10;;;;;;;0.40;0.40;;;;;;;;;;5057907;28;20225;-82
2023/05/21 01:59:37;;;;;;;0.33;0.33;;;;;;;;;;5057482;28;20214;-82
2023/05/21 02:02:03;;;;;;;0.40;0.40;;;;;;;;;;5057558;28;20202;-82
2023/05/21 02:04:30;;;;;;;0.40;0.40;;;;;;;;;;5058409;28;20171;-81
2023/05/21 02:06:56;;;;;;;0.40;0.40;;;;;;;;;;5057263;28;20186;-81
2023/05/21 02:09:22;;;;;;;0.37;0.37;;;;;;;;;;5057146;28;20175;-81
2023/05/21 02:11:48;;;;;;;0.40;0.40;;;;;;;;;;5057479;28;20194;-81
2023/05/21 02:14:15;;;;;;;0.40;0.40;;;;;;;;;;5057086;28;20539;-83
2023/05/21 02:16:41;;;;;;;0.40;0.40;;;;;;;;;;5057505;28;20189;-80
2023/05/21 02:19:09;;;;;;;0.40;0.40;;;;;;;;;;5057633;28;20279;-82
2023/05/21 02:21:35;;;;;;;0.40;0.40;;;;;;;;;;5057571;28;20189;-81
2023/05/21 02:24:01;;;;;;;0.40;0.40;;;;;;;;;;5056375;28;20191;-82
2023/05/21 02:26:27;;;;;;;0.47;0.47;;;;;;;;;;5056416;28;20167;-81
2023/05/21 02:28:54;;;;;;;0.37;0.37;;;;;;;;;;5057470;28;20179;-81
2023/05/21 02:31:20;;;;;;;0.30;0.30;;;;;;;;;;5056841;28;20175;-82
2023/05/21 02:33:46;;;;;;;0.40;0.40;;;;;;;;;;5057272;28;20205;-82
2023/05/21 02:36:14;;;;;;;0.40;0.40;;;;;;;;;;5056714;28;20210;-82
2023/05/21 02:38:42;;;;;;;0.40;0.40;;;;;;;;;;5056874;28;20262;-81
2023/05/21 02:41:08;;;;;;;0.40;0.40;;;;;;;;;;5056635;28;20223;-81
2023/05/21 02:43:34;;;;;;;0.40;0.40;;;;;;;;;;5056471;28;20205;-82
2023/05/21 02:46:00;;;;;;;0.47;0.47;;;;;;;;;;5056876;28;20557;-83
2023/05/21 02:48:26;;;;;;;0.50;0.50;;;;;;;;;;5057171;28;20210;-81
2023/05/21 02:50:52;;;;;;;0.40;0.40;;;;;;;;;;5057254;28;20228;-83
2023/05/21 02:53:18;;;;;;;0.50;0.50;;;;;;;;;;5056453;28;20202;-81
2023/05/21 02:55:44;;;;;;;0.60;0.60;;;;;;;;;;5057212;28;20171;-83
2023/05/21 02:58:12;;;;;;;0.40;0.40;;;;;;;;;;5057068;28;20181;-82
2023/05/21 03:00:38;;;;;;;0.40;0.40;;;;;;;;;;5056971;28;20230;-82
2023/05/21 03:03:04;;;;;;;0.43;0.43;;;;;;;;;;5055920;28;20206;-82
2023/05/21 03:05:30;;;;;;;0.40;0.40;;;;;;;;;;5056259;28;20266;-81
2023/05/21 03:07:56;;;;;;;0.40;0.40;;;;;;;;;;5056614;28;20176;-83
2023/05/21 03:10:22;;;;;;;0.40;0.40;;;;;;;;;;5055865;28;20190;-81
2023/05/21 03:12:48;;;;;;;0.40;0.40;;;;;;;;;;5056190;28;20191;-82
2023/05/21 03:15:15;;;;;;;0.40;0.40;;;;;;;;;;5056301;28;20179;-83
2023/05/21 03:17:43;;;;;;;0.30;0.30;;;;;;;;;;5056398;28;20186;-82
2023/05/21 03:20:14;;;;;;;0.50;0.50;;;;;;;;;;5056298;28;20297;-83
2023/05/21 03:22:41;;;;;;;0.40;0.40;;;;;;;;;;5057167;28;20611;-82
2023/05/21 03:25:08;;;;;;;0.40;0.40;;;;;;;;;;5055966;28;20741;-82
2023/05/21 03:27:33;;;;;;;0.30;0.30;;;;;;;;;;5056813;28;20584;-83
2023/05/21 03:30:00;;;;;;;0.40;0.40;;;;;;;;;;5057109;28;20182;-83
2023/05/21 03:32:25;;;;;;;0.43;0.43;;;;;;;;;;5055889;28;20205;-83
2023/05/21 03:34:51;;;;;;;0.43;0.43;;;;;;;;;;5058534;28;20179;-83
2023/05/21 03:37:17;;;;;;;0.50;0.50;;;;;;;;;;5060825;28;20179;-84
2023/05/21 03:39:43;;;;;;;0.50;0.50;;;;;;;;;;5056423;28;20417;-83
2023/05/21 03:42:09;;;;;;;0.30;0.30;;;;;;;;;;5062513;28;20167;-84
2023/05/21 03:44:35;;;;;;;0.50;0.50;;;;;;;;;;5072645;28;20183;-84
2023/05/21 03:47:01;;;;;;;0.40;0.40;;;;;;;;;;5066989;28;20186;-82
2023/05/21 03:49:27;;;;;;;0.40;0.40;;;;;;;;;;5069683;28;20193;-81
2023/05/21 03:51:53;;;;;;;0.60;0.60;;;;;;;;;;5070037;28;20167;-81
2023/05/21 03:54:19;;;;;;;0.57;0.57;;;;;;;;;;5068867;28;20210;-82
2023/05/21 03:56:45;;;;;;;0.57;0.57;;;;;;;;;;5069671;28;20179;-82
2023/05/21 03:59:11;;;;;;;0.53;0.53;;;;;;;;;;5068704;28;20377;-81
2023/05/21 04:01:38;;;;;;;0.40;0.40;;;;;;;;;;5061049;28;20179;-81
2023/05/21 04:04:04;;;;;;;0.40;0.40;;;;;;;;;;5066805;28;20225;-81
2023/05/21 04:06:30;;;;;;;0.40;0.40;;;;;;;;;;5068852;28;20179;-82
2023/05/21 04:08:55;;;;;;;0.47;0.47;;;;;;;;;;5068841;28;20202;-82
2023/05/21 04:11:21;;;;;;;0.40;0.40;;;;;;;;;;5062128;28;20179;-82
2023/05/21 04:13:47;;;;;;;0.37;0.37;;;;;;;;;;5053847;28;20218;-81
2023/05/21 04:16:17;;;;;;;0.50;0.50;;;;;;;;;;5054819;28;20182;-83
2023/05/21 04:18:43;;;;;;;0.40;0.40;;;;;;;;;;5054387;28;20221;-81
2023/05/21 04:21:10;;;;;;;0.40;0.40;;;;;;;;;;5054457;28;20708;-82
2023/05/21 04:23:36;;;;;;;0.40;0.40;;;;;;;;;;5054212;28;20289;-81
2023/05/21 04:26:02;;;;;;;0.43;0.43;;;;;;;;;;5054473;28;20190;-82
2023/05/21 04:28:28;;;;;;;0.50;0.50;;;;;;;;;;5054053;28;20179;-82
2023/05/21 04:30:55;;;;;;;0.60;0.60;;;;;;;;;;5054065;28;20262;-82
2023/05/21 04:33:21;;;;;;;0.50;0.50;;;;;;;;;;5053353;28;20195;-81
2023/05/21 04:35:50;;;;;;;0.47;0.47;;;;;;;;;;5054370;28;20175;-81
2023/05/21 04:38:18;;;;;;;0.30;0.30;;;;;;;;;;5054046;28;20179;-81
2023/05/21 04:40:52;;;;;;;0.40;0.40;;;;;;;;;;5053593;28;20211;-81
2023/05/21 04:43:24;;;;;;;0.60;0.60;;;;;;;;;;5054752;28;20195;-81
2023/05/21 04:45:50;;;;;;;0.43;0.43;;;;;;;;;;5054043;28;20253;-81
2023/05/21 04:48:16;;;;;;;0.47;0.47;;;;;;;;;;5053826;28;20199;-81
2023/05/21 04:50:42;;;;;;;0.30;0.30;;;;;;;;;;5054307;28;20271;-83
2023/05/21 04:53:08;;;;;;;0.50;0.50;;;;;;;;;;5054140;28;20564;-82
2023/05/21 04:55:38;;;;;;;0.53;0.53;;;;;;;;;;5057560;28;20183;-82
2023/05/21 04:58:09;;;;;;;0.50;0.50;;;;;;;;;;5057029;28;20210;-80
2023/05/21 05:00:36;;;;;;;0.50;0.50;;;;;;;;;;5056500;28;20254;-80
2023/05/21 05:03:02;;;;;;;0.40;0.40;;;;;;;;;;5056125;28;20203;-80
2023/05/21 05:05:28;;;;;;;0.50;0.50;;;;;;;;;;5056137;28;20229;-80
2023/05/21 05:07:56;;;;;;;0.40;0.40;;;;;;;;;;5056003;28;20546;-82
2023/05/21 05:10:22;;;;;;;0.40;0.40;;;;;;;;;;5056605;28;20179;-80
2023/05/21 05:12:48;;;;;;;0.50;0.50;;;;;;;;;;5056405;28;20195;-81
2023/05/21 05:15:14;;;;;;;0.50;0.50;;;;;;;;;;5047099;28;20190;-80
2023/05/21 05:17:40;;;;;;;0.40;0.40;;;;;;;;;;5036760;28;20663;-80
2023/05/21 05:20:07;;;;;;;0.50;0.50;;;;;;;;;;5036762;28;20211;-80
2023/05/21 05:22:33;;;;;;;0.40;0.40;;;;;;;;;;5036359;28;20206;-80
2023/05/21 05:24:59;;;;;;;0.50;0.50;;;;;;;;;;5037086;28;20180;-80
2023/05/21 05:27:25;;;;;;;0.40;0.40;;;;;;;;;;5036576;28;20274;-80
2023/05/21 05:29:51;;;;;;;0.40;0.40;;;;;;;;;;5036758;28;20203;-82
2023/05/21 05:32:17;;;;;;;0.50;0.50;;;;;;;;;;5037996;28;20180;-81
2023/05/21 05:34:45;;;;;;;0.50;0.50;;;;;;;;;;5048287;28;20180;-80
2023/05/21 05:37:11;;;;;;;0.50;0.50;;;;;;;;;;5048719;28;20175;-80
2023/05/21 05:39:37;;;;;;;0.30;0.30;;;;;;;;;;5048801;28;20530;-80
2023/05/21 05:42:03;;;;;;;0.37;0.37;;;;;;;;;;5048346;28;20180;-79
2023/05/21 05:44:29;;;;;;;0.30;0.30;;;;;;;;;;5048837;28;20658;-80
2023/05/21 05:46:55;;;;;;;0.30;0.30;;;;;;;;;;5039494;28;20180;-81
2023/05/21 05:49:21;;;;;;;0.40;0.40;;;;;;;;;;5058528;28;20199;-82
2023/05/21 05:51:47;;;;;;;0.40;0.40;;;;;;;;;;5059405;28;20176;-81
2023/05/21 05:54:13;;;;;;;0.40;0.40;;;;;;;;;;5059052;28;20183;-82
2023/05/21 05:56:39;;;;;;;0.47;0.47;;;;;;;;;;5054056;28;20489;-81
2023/05/21 05:59:05;;;;;;;0.47;0.47;;;;;;;;;;5039382;28;20180;-80
2023/05/21 06:01:31;;;;;;;0.50;0.50;;;;;;;;;;5038976;28;20233;-81
2023/05/21 06:03:57;;;;;;;0.40;0.40;;;;;;;;;;5037703;28;20295;-81
2023/05/21 06:06:23;;;;;;;0.50;0.50;;;;;;;;;;5037693;28;20701;-81
2023/05/21 06:08:49;;;;;;;0.40;0.40;;;;;;;;;;5037747;28;20661;-91
2023/05/21 06:11:16;;;;;;;0.40;0.40;;;;;;;;;;5037038;28;20176;-82
2023/05/21 06:13:42;;;;;;;0.50;0.50;;;;;;;;;;5036622;28;20199;-81
2023/05/21 06:16:08;;;;;;;0.40;0.40;;;;;;;;;;5036525;28;20183;-82
2023/05/21 06:18:35;;;;;;;0.40;0.40;;;;;;;;;;5037165;28;20183;-81
2023/05/21 06:21:00;;;;;;;0.37;0.37;;;;;;;;;;5036500;28;20742;-81
2023/05/21 06:23:26;;;;;;;0.40;0.40;;;;;;;;;;5036241;28;20229;-81
2023/05/21 06:25:52;;;;;;;0.40;0.40;;;;;;;;;;5036501;28;20172;-81
2023/05/21 06:28:18;;;;;;;0.40;0.40;;;;;;;;;;5036817;28;20179;-80
2023/05/21 06:30:44;;;;;;;0.30;0.30;;;;;;;;;;5036163;28;20536;-81
2023/05/21 06:33:11;;;;;;;0.40;0.40;;;;;;;;;;5036087;28;20196;-82
2023/05/21 06:35:38;;;;;;;0.30;0.30;;;;;;;;;;5036272;28;20631;-81
2023/05/21 06:38:04;;;;;;;0.30;0.30;;;;;;;;;;5036053;28;20254;-81
2023/05/21 06:40:30;;;;;;;0.30;0.30;;;;;;;;;;5036190;28;20265;-81
2023/05/21 06:42:58;;;;;;;0.30;0.30;;;;;;;;;;5035714;28;20206;-81
2023/05/21 06:45:24;;;;;;;0.30;0.30;;;;;;;;;;5036444;28;20190;-81
2023/05/21 06:47:50;;;;;;;0.30;0.30;;;;;;;;;;5035904;28;20635;-81
2023/05/21 06:50:16;;;;;;;0.40;0.40;;;;;;;;;;5035764;28;20184;-82
2023/05/21 06:52:42;;;;;;;0.30;0.30;;;;;;;;;;5036971;28;20196;-81
2023/05/21 06:55:08;;;;;;;0.30;0.30;;;;;;;;;;5046127;28;20236;-81
2023/05/21 06:57:34;;;;;;;0.30;0.30;;;;;;;;;;5056992;28;20249;-82
2023/05/21 07:00:00;;;;;;;0.37;0.37;;;;;;;;;;5056773;28;20211;-82
2023/05/21 07:02:26;;;;;;;0.30;0.30;;;;;;;;;;5057071;28;20248;-82
2023/05/21 07:04:54;;;;;;;0.40;0.40;;;;;;;;;;5058417;28;20174;-80
2023/05/21 07:07:20;;;;;;;0.40;0.40;;;;;;;;;;5061198;28;20186;-81
2023/05/21 07:09:46;;;;;;;0.30;0.30;;;;;;;;;;5068473;28;20234;-80
2023/05/21 07:12:12;;;;;;;0.30;0.30;;;;;;;;;;5068168;28;20179;-80
2023/05/21 07:14:38;;;;;;;0.30;0.30;;;;;;;;;;5064662;28;20172;-83
2023/05/21 07:17:04;;;;;;;0.30;0.30;;;;;;;;;;5057660;28;20163;-84
2023/05/21 07:19:31;;;;;;;0.30;0.30;;;;;;;;;;5065775;28;20582;-83
2023/05/21 07:21:57;;;;;;;0.40;0.40;;;;;;;;;;5043145;28;20234;-88
2023/05/21 07:24:23;;;;;;;0.30;0.30;;;;;;;;;;5035773;28;20199;-82
2023/05/21 07:26:49;;;;;;;0.33;0.33;;;;;;;;;;5038090;28;20212;-83
2023/05/21 07:29:15;;;;;;;0.40;0.40;;;;;;;;;;5055381;28;20178;-84
2023/05/21 07:31:41;;;;;;;0.30;0.30;;;;;;;;;;5045100;28;20172;-85
2023/05/21 07:34:07;;;;;;;0.40;0.40;;;;;;;;;;5048250;28;20259;-83
2023/05/21 07:36:33;;;;;;;0.40;0.40;;;;;;;;;;5039492;28;20176;-86
2023/05/21 07:38:59;;;;;;;0.27;0.27;;;;;;;;;;5045130;28;20202;-83
2023/05/21 07:41:25;;;;;;;0.30;0.30;;;;;;;;;;5049563;28;20241;-83
2023/05/21 07:43:51;;;;;;;0.40;0.40;;;;;;;;;;5045273;28;20623;-83
2023/05/21 07:46:21;;;;;;;0.30;0.30;;;;;;;;;;5046758;28;20185;-85
2023/05/21 07:48:47;;;;;;;0.30;0.30;;;;;;;;;;5056729;28;20187;-84
2023/05/21 07:51:13;;;;;;;0.40;0.40;;;;;;;;;;5063891;28;20171;-83
2023/05/21 07:53:39;;;;;;;0.20;0.20;;;;;;;;;;5068317;28;20183;-83
2023/05/21 07:56:05;;;;;;;0.40;0.40;;;;;;;;;;5078459;28;20281;-84
2023/05/21 07:58:33;;;;;;;0.40;0.40;;;;;;;;;;5059736;28;20175;-84
2023/05/21 08:01:00;;;;;;;0.40;0.40;;;;;;;;;;5071644;28;20333;-83
2023/05/21 08:03:29;;;;;;;0.50;0.50;;;;;;;;;;5065510;28;20194;-82
2023/05/21 08:05:55;;;;;;;0.40;0.40;;;;;;;;;;5067603;28;20183;-84
2023/05/21 08:08:22;;;;;;;0.30;0.30;;;;;;;;;;5075664;28;20181;-84
2023/05/21 08:10:48;;;;;;;0.50;0.50;;;;;;;;;;5062381;28;20163;-83
2023/05/21 08:13:15;;;;;;;0.43;0.43;;;;;;;;;;5069182;28;20191;-83
2023/05/21 08:15:41;;;;;;;0.30;0.30;;;;;;;;;;5057959;28;20175;-83
2023/05/21 08:18:07;;;;;;;0.40;0.40;;;;;;;;;;5058142;28;20175;-84
2023/05/21 08:20:33;;;;;;;0.30;0.30;;;;;;;;;;5058348;28;20257;-84
2023/05/21 08:22:59;;;;;;;0.53;0.53;;;;;;;;;;5060871;28;20195;-82
2023/05/21 08:25:28;;;;;;;0.40;0.40;;;;;;;;;;5067476;28;20174;-83
2023/05/21 08:27:55;;;;;;;0.40;0.40;;;;;;;;;;5085936;28;20178;-82
2023/05/21 08:30:21;;;;;;;0.43;0.43;;;;;;;;;;5093551;28;20198;-83
2023/05/21 08:32:48;;;;;;;0.30;0.30;;;;;;;;;;5082431;28;20202;-83
2023/05/21 08:35:13;;;;;;;0.37;0.37;;;;;;;;;;5084908;28;20182;-83
2023/05/21 08:37:40;;;;;;;0.50;0.50;;;;;;;;;;5082227;28;20170;-83
2023/05/21 08:40:06;;;;;;;0.40;0.40;;;;;;;;;;5081686;28;20221;-82
2023/05/21 08:42:32;;;;;;;0.50;0.50;;;;;;;;;;5081726;28;20198;-83
2023/05/21 08:44:59;;;;;;;0.50;0.50;;;;;;;;;;5080110;28;20178;-83
2023/05/21 08:47:29;;;;;;;0.50;0.50;;;;;;;;;;5079613;28;20183;-83
2023/05/21 08:49:55;;;;;;;0.60;0.60;;;;;;;;;;5079139;28;20183;-83
2023/05/21 08:52:21;;;;;;;0.33;0.33;;;;;;;;;;5077927;28;20201;-82
2023/05/21 08:54:49;;;;;;;0.50;0.50;;;;;;;;;;5078362;28;20232;-83
2023/05/21 08:57:16;;;;;;;0.40;0.40;;;;;;;;;;5078652;28;20186;-83
2023/05/21 08:59:43;;;;;;;0.50;0.50;;;;;;;;;;5079003;28;20214;-83
2023/05/21 09:02:11;;;;;;;0.40;0.40;;;;;;;;;;5076363;28;20699;-83
2023/05/21 09:04:38;;;;;;;0.50;0.50;;;;;;;;;;5078065;28;20163;-84
2023/05/21 09:07:04;;;;;;;0.30;0.30;;;;;;;;;;5078172;28;20167;-83
2023/05/21 09:09:37;;;;;;;0.40;0.40;;;;;;;;;;5066289;28;20183;-83
2023/05/21 09:12:03;;;;;;;0.40;0.40;;;;;;;;;;5057002;28;20608;-83
2023/05/21 09:14:29;;;;;;;0.40;0.40;;;;;;;;;;5059135;28;20179;-82
2023/05/21 09:16:55;;;;;;;0.30;0.30;;;;;;;;;;5058938;28;20243;-83
2023/05/21 09:19:22;;;;;;;0.57;0.57;;;;;;;;;;5059898;28;20649;-82
2023/05/21 09:21:50;;;;;;;0.40;0.40;;;;;;;;;;5060196;28;20205;-83
2023/05/21 09:24:16;;;;;;;0.50;0.50;;;;;;;;;;5058264;28;20210;-82
2023/05/21 09:26:43;;;;;;;0.50;0.50;;;;;;;;;;5058841;28;20168;-81
2023/05/21 09:29:09;;;;;;;0.40;0.40;;;;;;;;;;5060048;28;20171;-82
2023/05/21 09:31:35;;;;;;;0.30;0.30;;;;;;;;;;5053373;28;20182;-83
2023/05/21 09:34:01;;;;;;;0.50;0.50;;;;;;;;;;5049931;28;20629;-81
2023/05/21 09:36:28;;;;;;;0.50;0.50;;;;;;;;;;5058345;28;20175;-83
2023/05/21 09:38:54;;;;;;;0.40;0.40;;;;;;;;;;5058714;28;20527;-82
2023/05/21 09:41:30;;;;;;;0.40;0.40;;;;;;;;;;5058417;28;20215;-83
2023/05/21 09:43:58;;;;;;;0.30;0.30;;;;;;;;;;5058755;28;20216;-84
2023/05/21 09:46:26;;;;;;;0.40;0.40;;;;;;;;;;5056704;28;20198;-85
2023/05/21 09:48:52;;;;;;;0.50;0.50;;;;;;;;;;5050982;28;20192;-84
2023/05/21 09:51:19;;;;;;;0.40;0.40;;;;;;;;;;5053283;28;20206;-83
2023/05/21 09:53:48;;;;;;;0.40;0.40;;;;;;;;;;5055900;28;20615;-82
2023/05/21 09:56:14;;;;;;;0.40;0.40;;;;;;;;;;5054139;28;20179;-84
2023/05/21 09:58:40;;;;;;;0.50;0.50;;;;;;;;;;5051971;28;20220;-82
2023/05/21 10:01:07;;;;;;;0.60;0.60;;;;;;;;;;5079308;28;20206;-85
2023/05/21 10:03:33;;;;;;;0.40;0.40;;;;;;;;;;5071733;28;20283;-85
2023/05/21 10:05:59;;;;;;;0.50;0.50;;;;;;;;;;5068939;28;20190;-83
2023/05/21 10:08:26;;;;;;;0.40;0.40;;;;;;;;;;5052652;28;20242;-83
2023/05/21 10:10:52;;;;;;;0.43;0.43;;;;;;;;;;5074198;28;20523;-84
2023/05/21 10:13:20;;;;;;;0.60;0.60;;;;;;;;;;5081426;28;20209;-83
2023/05/21 10:15:49;;;;;;;0.50;0.50;;;;;;;;;;5088264;28;20330;-83
2023/05/21 10:18:17;;;;;;;0.50;0.50;;;;;;;;;;5064858;28;20219;-83
2023/05/21 10:20:43;;;;;;;0.50;0.50;;;;;;;;;;5081522;28;20687;-83
2023/05/21 10:23:09;;;;;;;0.50;0.50;;;;;;;;;;5061151;28;20683;-84
2023/05/21 10:25:35;;;;;;;0.60;0.60;;;;;;;;;;5072434;28;20175;-84
2023/05/21 10:28:02;;;;;;;0.57;0.57;;;;;;;;;;5070151;28;20202;-84
2023/05/21 10:30:29;;;;;;;0.60;0.60;;;;;;;;;;5061534;28;20183;-84
2023/05/21 10:32:55;;;;;;;0.60;0.60;;;;;;;;;;5061312;28;20268;-83
2023/05/21 10:35:22;;;;;;;0.50;0.50;;;;;;;;;;5075442;28;20195;-84
2023/05/21 10:37:48;;;;;;;0.70;0.70;;;;;;;;;;5085594;28;20196;-85
2023/05/21 10:40:14;;;;;;;0.70;0.70;;;;;;;;;;5083254;28;20230;-84
2023/05/21 10:42:43;;;;;;;0.60;0.60;;;;;;;;;;5077026;28;20269;-84
2023/05/21 10:45:31;;;;;;;0.70;0.70;;;;;;;;;;5096910;28;20168;-84
2023/05/21 10:48:16;;;;;;;0.53;0.53;;;;;;;;;;5082299;28;20181;-84
2023/05/21 10:50:54;;;;;;;0.50;0.50;;;;;;;;;;5076640;28;20219;-86
2023/05/21 10:53:23;;;;;;;0.60;0.60;;;;;;;;;;5077577;28;20231;-84
2023/05/21 10:55:58;;;;;;;0.70;0.70;;;;;;;;;;5077986;28;20198;-84
2023/05/21 10:58:43;;;;;;;0.47;0.47;;;;;;;;;;5066644;28;20192;-83
2023/05/21 11:01:10;;;;;;;0.50;0.50;;;;;;;;;;5067253;28;20207;-86
2023/05/21 11:03:36;;;;;;;0.50;0.50;;;;;;;;;;5057777;28;20215;-84
2023/05/21 11:06:05;;;;;;;0.60;0.60;;;;;;;;;;5057943;28;20164;-83
2023/05/21 11:08:34;;;;;;;0.60;0.60;;;;;;;;;;5057755;28;20559;-84
2023/05/21 11:11:00;;;;;;;0.50;0.50;;;;;;;;;;5057896;28;20175;-83
2023/05/21 11:13:27;;;;;;;0.70;0.70;;;;;;;;;;5056692;28;20257;-83
2023/05/21 11:16:04;;;;;;;0.60;0.60;;;;;;;;;;5054312;28;20197;-83
2023/05/21 11:18:30;;;;;;;0.60;0.60;;;;;;;;;;5056140;28;20588;-82
2023/05/21 11:21:15;;;;;;;0.50;0.50;;;;;;;;;;5056090;28;20210;-84
2023/05/21 11:23:54;;;;;;;0.60;0.60;;;;;;;;;;5057493;28;20233;-83
2023/05/21 11:26:21;;;;;;;0.60;0.60;;;;;;;;;;5060083;22;20331;-87
2023/05/21 11:28:50;;;;;;;0.60;0.60;;;;;;;;;;5012945;28;20190;-86
2023/05/21 11:31:26;;;;;;;0.50;0.50;;;;;;;;;;5010612;28;20176;-88
2023/05/21 11:34:08;;;;;;;0.50;0.50;;;;;;;;;;5026734;28;20199;-86
2023/05/21 11:36:36;;;;;;;0.60;0.60;;;;;;;;;;5032097;28;20654;-87
2023/05/21 11:39:10;;;;;;;0.50;0.50;;;;;;;;;;5031305;28;20180;-86
2023/05/21 11:41:55;;;;;;;0.60;0.60;;;;;;;;;;5031466;28;20294;-85
2023/05/21 11:44:38;;;;;;;0.67;0.67;;;;;;;;;;5016445;28;20212;-85
2023/05/21 11:47:04;;;;;;;0.50;0.50;;;;;;;;;;5012247;28;20176;-84
2023/05/21 11:49:31;;;;;;;0.30;0.30;;;;;;;;;;5012225;28;20180;-85
2023/05/21 11:51:58;;;;;;;0.60;0.60;;;;;;;;;;5011500;28;20180;-86
2023/05/21 11:54:24;;;;;;;0.50;0.50;;;;;;;;;;5010847;28;20207;-86
2023/05/21 11:56:51;;;;;;;0.50;0.50;;;;;;;;;;5011645;28;20181;-83
2023/05/21 11:59:17;;;;;;;0.53;0.53;;;;;;;;;;5012502;28;20192;-82
2023/05/21 12:01:43;;;;;;;0.47;0.47;;;;;;;;;;5013436;28;20180;-85
2023/05/21 12:04:12;;;;;;;0.40;0.40;;;;;;;;;;5015427;28;20697;-84
2023/05/21 12:06:41;;;;;;;0.47;0.47;;;;;;;;;;5015277;28;20181;-86
2023/05/21 12:09:08;;;;;;;0.37;0.37;;;;;;;;;;5016230;28;20180;-84
2023/05/21 12:11:34;;;;;;;0.60;0.60;;;;;;;;;;5015028;28;20652;-85
2023/05/21 12:14:00;;;;;;;0.50;0.50;;;;;;;;;;5014663;28;20238;-85
2023/05/21 12:16:26;;;;;;;0.50;0.50;;;;;;;;;;5015789;28;20180;-85
2023/05/21 12:18:53;;;;;;;0.50;0.50;;;;;;;;;;5016380;28;20188;-85
2023/05/21 12:21:19;;;;;;;0.50;0.50;;;;;;;;;;5023815;28;20222;-84
2023/05/21 12:23:45;;;;;;;0.50;0.50;;;;;;;;;;5037028;28;20195;-85
2023/05/21 12:26:12;;;;;;;0.40;0.40;;;;;;;;;;5017595;28;20440;-85
2023/05/21 12:28:39;;;;;;;0.40;0.40;;;;;;;;;;5017085;28;20262;-85
2023/05/21 12:31:05;;;;;;;0.40;0.40;;;;;;;;;;5017666;28;20181;-84
2023/05/21 12:33:37;;;;;;;0.50;0.50;;;;;;;;;;5018619;28;20208;-84
2023/05/21 12:36:03;;;;;;;0.40;0.40;;;;;;;;;;5025797;28;20267;-85
2023/05/21 12:38:32;;;;;;;0.40;0.40;;;;;;;;;;5021113;28;20177;-84
2023/05/21 12:41:05;;;;;;;0.40;0.40;;;;;;;;;;5033948;28;20197;-85
2023/05/21 12:43:32;;;;;;;0.40;0.40;;;;;;;;;;5027871;28;20212;-84
2023/05/21 12:45:58;;;;;;;0.43;0.43;;;;;;;;;;5021978;28;20183;-86
2023/05/21 12:48:24;;;;;;;0.40;0.40;;;;;;;;;;5037352;28;20223;-86
2023/05/21 12:50:51;;;;;;;0.53;0.53;;;;;;;;;;5037503;28;20180;-83
2023/05/21 12:53:17;;;;;;;0.33;0.33;;;;;;;;;;5036481;28;20204;-84
2023/05/21 12:55:43;;;;;;;0.50;0.50;;;;;;;;;;5036676;28;20210;-86
2023/05/21 12:58:13;;;;;;;0.47;0.47;;;;;;;;;;5035684;28;20242;-86
2023/05/21 13:00:42;;;;;;;0.40;0.40;;;;;;;;;;5023914;28;20212;-85
2023/05/21 13:03:08;;;;;;;0.40;0.40;;;;;;;;;;5012783;28;20632;-85
2023/05/21 13:05:34;;;;;;;0.40;0.40;;;;;;;;;;5015223;28;20183;-84
2023/05/21 13:08:00;;;;;;;0.60;0.60;;;;;;;;;;5016695;28;20181;-85
2023/05/21 13:10:26;;;;;;;0.40;0.40;;;;;;;;;;5013945;28;20199;-86
2023/05/21 13:12:52;;;;;;;0.43;0.43;;;;;;;;;;5012860;28;20235;-88
2023/05/21 13:15:18;;;;;;;0.50;0.50;;;;;;;;;;5033754;28;20179;-87
2023/05/21 13:17:44;;;;;;;0.50;0.50;;;;;;;;;;5034091;28;20472;-86
2023/05/21 13:20:11;;;;;;;0.60;0.60;;;;;;;;;;5034102;28;20218;-87
2023/05/21 13:22:40;;;;;;;0.50;0.50;;;;;;;;;;5033722;28;20247;-86
2023/05/21 13:25:07;;;;;;;0.30;0.30;;;;;;;;;;5034317;28;20186;-87
2023/05/21 13:27:33;;;;;;;0.50;0.50;;;;;;;;;;5025795;28;20554;-86
2023/05/21 13:29:59;;;;;;;0.33;0.33;;;;;;;;;;5018282;28;20181;-86
2023/05/21 13:32:25;;;;;;;0.40;0.40;;;;;;;;;;5028710;28;20295;-87
2023/05/21 13:34:51;;;;;;;0.40;0.40;;;;;;;;;;5016245;28;20748;-87
2023/05/21 13:37:19;;;;;;;0.47;0.47;;;;;;;;;;5020678;28;20340;-83
2023/05/21 13:39:44;;;;;;;0.47;0.47;;;;;;;;;;5032772;28;20208;-83
2023/05/21 13:42:10;;;;;;;0.50;0.50;;;;;;;;;;5027208;28;20195;-83
2023/05/21 13:44:37;;;;;;;0.60;0.60;;;;;;;;;;5019225;28;20185;-83
2023/05/21 13:52:42;;;;;;;0.43;0.43;;;;;;;;;;5017356;28;20207;-84
2023/05/21 13:55:09;;;;;;;0.43;0.43;;;;;;;;;;5035797;28;20223;-83
2023/05/21 13:57:35;;;;;;;0.50;0.50;;;;;;;;;;5043013;28;20200;-83
2023/05/21 14:00:01;;;;;;;0.50;0.50;;;;;;;;;;5037097;28;20243;-82
2023/05/21 14:02:27;;;;;;;0.30;0.30;;;;;;;;;;5023534;28;20177;-82
2023/05/21 14:04:53;;;;;;;0.40;0.40;;;;;;;;;;5022731;28;20189;-82
2023/05/21 14:07:20;;;;;;;0.40;0.40;;;;;;;;;;5023002;28;20180;-83
2023/05/21 14:09:46;;;;;;;0.40;0.40;;;;;;;;;;5022155;28;20211;-82
2023/05/21 14:12:12;;;;;;;0.40;0.40;;;;;;;;;;5022391;28;20302;-84
2023/05/21 14:14:38;;;;;;;0.40;0.40;;;;;;;;;;5024221;28;20176;-83
2023/05/21 14:17:05;;;;;;;0.40;0.40;;;;;;;;;;5026071;28;20187;-85
2023/05/21 14:19:31;;;;;;;0.40;0.40;;;;;;;;;;5024012;28;20227;-84
2023/05/21 14:21:58;;;;;;;0.30;0.30;;;;;;;;;;5045028;28;20206;-82
2023/05/21 14:24:24;;;;;;;0.40;0.40;;;;;;;;;;5043889;28;20178;-83
2023/05/21 14:26:50;;;;;;;0.40;0.40;;;;;;;;;;5044410;28;20215;-84
2023/05/21 14:29:16;;;;;;;0.50;0.50;;;;;;;;;;5045520;28;20187;-81
2023/05/21 14:31:42;;;;;;;0.50;0.50;;;;;;;;;;5046647;28;20176;-83
2023/05/21 14:34:09;;;;;;;0.50;0.50;;;;;;;;;;5045828;28;20180;-83
2023/05/21 14:36:35;;;;;;;0.60;0.60;;;;;;;;;;5024840;28;20577;-83
2023/05/21 14:39:01;;;;;;;0.30;0.30;;;;;;;;;;5014731;28;20494;-85
2023/05/21 14:41:27;;;;;;;0.50;0.50;;;;;;;;;;5016791;28;20201;-85
2023/05/21 14:43:53;;;;;;;0.47;0.47;;;;;;;;;;5018042;28;20177;-84
2023/05/21 14:46:19;;;;;;;0.50;0.50;;;;;;;;;;5037307;28;20632;-83
2023/05/21 14:48:45;;;;;;;0.50;0.50;;;;;;;;;;5038676;28;20172;-83